createdAt,value
2022-08-10T00:00:55.910Z,69.21
2022-08-10T00:03:22.438Z,69.22
2022-08-10T00:05:52.984Z,69.95
2022-08-10T00:08:23.659Z,70.43
2022-08-10T00:10:55.514Z,70.02
2022-08-10T00:13:25.524Z,69.97
2022-08-10T00:15:55.017Z,70.39
2022-08-10T00:18:28.907Z,70.38
2022-08-10T00:21:07.121Z,70.83
2022-08-10T00:23:34.127Z,70.88
2022-08-10T00:26:00.943Z,70.71
2022-08-10T00:28:27.590Z,71.37
2022-08-10T00:30:54.407Z,70.40
2022-08-10T00:33:21.006Z,71.38
2022-08-10T00:35:48.166Z,71.76
2022-08-10T00:38:14.706Z,71.90
2022-08-10T00:40:41.250Z,72.38
2022-08-10T00:43:07.973Z,72.29
2022-08-10T00:45:35.557Z,72.71
2022-08-10T00:48:02.035Z,73.26
2022-08-10T00:50:28.712Z,73.47
2022-08-10T00:52:55.247Z,73.54
2022-08-10T00:55:21.871Z,74.07
2022-08-10T00:57:55.143Z,74.26
2022-08-10T01:00:22.934Z,74.87
2022-08-10T01:02:49.451Z,74.90
2022-08-10T01:05:16.161Z,74.69
2022-08-10T01:07:56.645Z,75.33
2022-08-10T01:10:32.492Z,75.39
2022-08-10T01:13:06.652Z,75.47
2022-08-10T01:15:52.111Z,76.77
2022-08-10T01:18:26.451Z,76.63
2022-08-10T01:21:30.606Z,77.31
2022-08-10T01:24:26.995Z,77.83
2022-08-10T01:26:59.085Z,77.96
2022-08-10T01:29:32.125Z,77.59
2022-08-10T01:32:07.180Z,75.81
2022-08-10T01:34:54.596Z,76.33
2022-08-10T01:37:27.083Z,75.70
2022-08-10T01:39:58.532Z,75.47
2022-08-10T01:42:28.341Z,76.55
2022-08-10T01:45:02.693Z,76.56
2022-08-10T01:47:52.577Z,76.93
2022-08-10T01:50:26.955Z,77.78
2022-08-10T01:52:58.351Z,78.08
2022-08-10T01:55:26.707Z,78.57
2022-08-10T01:57:53.749Z,77.90
2022-08-10T02:00:20.664Z,78.15
2022-08-10T02:02:47.395Z,78.06
2022-08-10T02:05:15.931Z,77.95
2022-08-10T02:07:43.824Z,79.06
2022-08-10T02:10:14.541Z,79.26
2022-08-10T02:12:43.519Z,79.67
2022-08-10T02:15:16.478Z,80.13
2022-08-10T02:17:57.671Z,80.50
2022-08-10T02:20:36.632Z,81.23
2022-08-10T02:23:08.664Z,80.67
2022-08-10T02:25:40.865Z,81.48
2022-08-10T02:28:13.288Z,81.06
2022-08-10T02:30:57.682Z,81.10
2022-08-10T02:33:27.257Z,80.97
2022-08-10T02:35:56.132Z,81.05
2022-08-10T02:38:59.800Z,80.72
2022-08-10T02:45:01.233Z,81.08
2022-08-10T02:45:23.151Z,80.77
2022-08-10T02:48:03.665Z,80.88
2022-08-10T02:50:34.774Z,80.81
2022-08-10T02:53:54.934Z,80.78
2022-08-10T02:56:10.157Z,80.92
2022-08-10T02:58:44.646Z,81.93
2022-08-10T03:01:16.034Z,82.01
2022-08-10T03:03:49.707Z,82.20
2022-08-10T03:06:25.590Z,82.91
2022-08-10T03:08:54.087Z,82.46
2022-08-10T03:12:35.036Z,82.79
2022-08-10T03:14:11.952Z,83.79
2022-08-10T03:16:39.633Z,83.63
2022-08-10T03:20:35.414Z,82.91
2022-08-10T03:21:56.749Z,81.96
2022-08-10T03:24:32.535Z,82.01
2022-08-10T03:27:00.947Z,81.80
2022-08-10T03:29:28.613Z,82.10
2022-08-10T03:31:56.256Z,82.10
2022-08-10T03:34:33.304Z,81.69
2022-08-10T03:37:00.630Z,81.13
2022-08-10T03:39:27.505Z,81.75
2022-08-10T03:41:57.657Z,81.95
2022-08-10T03:44:27.440Z,82.41
2022-08-10T03:46:55.214Z,82.98
2022-08-10T03:49:23.070Z,82.60
2022-08-10T03:51:51.382Z,82.86
2022-08-10T03:54:19.115Z,83.08
2022-08-10T03:56:46.077Z,83.19
2022-08-10T03:59:14.627Z,82.96
2022-08-10T04:02:46.061Z,83.20
2022-08-10T04:04:29.595Z,84.23
2022-08-10T04:06:58.938Z,86.62
2022-08-10T04:09:42.709Z,88.33
2022-08-10T04:12:14.292Z,88.55
2022-08-10T04:14:51.198Z,88.20
2022-08-10T04:18:03.939Z,88.90
2022-08-10T04:20:34.205Z,88.86
2022-08-10T04:23:06.782Z,88.91
2022-08-10T04:25:34.412Z,87.82
2022-08-10T04:28:01.303Z,88.43
2022-08-10T04:30:31.424Z,88.39
2022-08-10T04:32:59.692Z,89.06
2022-08-10T04:35:28.834Z,87.70
2022-08-10T04:37:57.081Z,88.45
2022-08-10T04:40:29.792Z,88.89
2022-08-10T04:43:07.497Z,90.27
2022-08-10T04:45:49.042Z,89.03
2022-08-10T04:48:43.092Z,89.06
2022-08-10T04:51:05.900Z,88.60
2022-08-10T04:53:32.345Z,89.22
2022-08-10T04:55:58.809Z,88.93
2022-08-10T04:58:25.247Z,88.61
2022-08-10T05:00:51.742Z,89.05
2022-08-10T05:03:18.228Z,88.90
2022-08-10T05:05:44.637Z,89.03
2022-08-10T05:08:11.053Z,88.19
2022-08-10T05:10:37.503Z,87.94
2022-08-10T05:13:03.923Z,88.48
2022-08-10T05:15:30.379Z,88.58
2022-08-10T05:18:08.799Z,87.88
2022-08-10T05:20:38.881Z,88.37
2022-08-10T05:23:05.329Z,87.81
2022-08-10T05:25:32.485Z,86.04
2022-08-10T05:28:06.461Z,86.22
2022-08-10T05:30:34.128Z,85.22
2022-08-10T05:33:04.942Z,85.04
2022-08-10T05:35:55.187Z,83.93
2022-08-10T05:38:22.797Z,82.60
2022-08-10T05:40:50.185Z,82.49
2022-08-10T05:43:19.247Z,81.82
2022-08-10T05:46:18.083Z,81.05
2022-08-10T05:48:41.956Z,80.64
2022-08-10T05:51:20.891Z,81.27
2022-08-10T05:54:02.863Z,80.18
2022-08-10T05:56:56.982Z,79.48
2022-08-10T06:00:34.973Z,79.36
2022-08-10T06:02:41.136Z,79.39
2022-08-10T06:04:56.820Z,78.46
2022-08-10T06:07:27.282Z,77.95
2022-08-10T06:10:00.055Z,76.90
2022-08-10T06:12:31.315Z,74.63
2022-08-10T06:15:05.840Z,72.44
2022-08-10T06:17:37.224Z,72.19
2022-08-10T06:20:04.448Z,71.20
2022-08-10T06:22:34.121Z,69.75
2022-08-10T06:25:37.806Z,69.14
2022-08-10T06:27:50.653Z,68.55
2022-08-10T06:30:20.870Z,67.21
2022-08-10T06:32:51.190Z,65.72
2022-08-10T06:35:18.942Z,65.61
2022-08-10T06:37:51.569Z,65.74
2022-08-10T06:40:19.485Z,66.37
2022-08-10T06:42:50.774Z,65.44
2022-08-10T06:45:19.966Z,64.76
2022-08-10T06:47:55.774Z,62.74
2022-08-10T06:50:56.395Z,62.93
2022-08-10T06:53:53.289Z,61.77
2022-08-10T06:56:36.575Z,61.38
2022-08-10T06:59:21.190Z,60.09
2022-08-10T07:01:53.150Z,60.84
2022-08-10T07:04:32.567Z,61.17
2022-08-10T07:07:04.326Z,60.38
2022-08-10T07:09:35.009Z,59.45
2022-08-10T07:12:07.552Z,59.70
2022-08-10T07:14:42.592Z,58.00
2022-08-10T07:17:15.136Z,57.08
2022-08-10T07:19:50.022Z,56.17
2022-08-10T07:23:22.891Z,55.67
2022-08-10T07:25:12.115Z,56.00
2022-08-10T07:28:00.129Z,55.61
2022-08-10T07:30:30.403Z,55.24
2022-08-10T07:32:57.814Z,55.03
2022-08-10T07:35:26.995Z,54.09
2022-08-10T07:37:54.546Z,54.07
2022-08-10T07:40:22.236Z,53.67
2022-08-10T07:42:53.610Z,53.17
2022-08-10T07:45:20.311Z,53.45
2022-08-10T07:48:17.207Z,53.42
2022-08-10T07:50:46.180Z,52.79
2022-08-10T07:53:20.349Z,52.17
2022-08-10T07:56:03.663Z,51.74
2022-08-10T07:58:52.611Z,50.97
2022-08-10T08:01:21.699Z,51.23
2022-08-10T08:04:05.885Z,50.28
2022-08-10T08:06:36.752Z,50.12
2022-08-10T08:09:04.532Z,50.38
2022-08-10T08:11:32.367Z,50.21
2022-08-10T08:14:00.377Z,49.53
2022-08-10T08:16:27.118Z,48.63
2022-08-10T08:19:23.962Z,48.35
2022-08-10T08:24:06.315Z,48.30
2022-08-10T08:24:34.451Z,48.39
2022-08-10T08:27:03.230Z,47.92
2022-08-10T08:29:34.351Z,48.47
2022-08-10T08:32:03.699Z,47.63
2022-08-10T08:34:32.623Z,46.63
2022-08-10T08:37:00.895Z,46.97
2022-08-10T08:39:27.538Z,47.09
2022-08-10T08:41:59.154Z,46.11
2022-08-10T08:45:00.588Z,45.59
2022-08-10T08:48:02.368Z,44.67
2022-08-10T08:50:37.214Z,43.45
2022-08-10T08:54:01.571Z,43.66
2022-08-10T08:56:28.462Z,43.10
2022-08-10T08:59:23.330Z,43.27
2022-08-10T09:02:27.805Z,43.49
2022-08-10T09:05:23.603Z,43.69
2022-08-10T09:08:06.081Z,43.17
2022-08-10T09:10:52.595Z,44.66
2022-08-10T09:13:27.225Z,44.37
2022-08-10T09:16:03.648Z,41.62
2022-08-10T09:18:54.971Z,42.82
2022-08-10T09:22:13.501Z,40.12
2022-08-10T09:24:46.252Z,39.70
2022-08-10T09:27:26.671Z,39.05
2022-08-10T09:30:00.303Z,37.76
2022-08-10T09:36:13.758Z,39.09
2022-08-10T09:36:23.359Z,38.78
2022-08-10T09:40:12.435Z,38.54
2022-08-10T09:42:28.850Z,37.74
2022-08-10T09:45:14.795Z,38.41
2022-08-10T09:48:01.064Z,38.96
2022-08-10T09:51:34.505Z,38.91
2022-08-10T09:53:50.123Z,38.78
2022-08-10T09:56:48.366Z,38.78
2022-08-10T10:00:01.929Z,37.68
2022-08-10T10:02:32.068Z,37.13
2022-08-10T10:05:21.709Z,36.38
2022-08-10T10:08:02.987Z,36.37
2022-08-10T10:10:47.455Z,35.33
2022-08-10T10:13:41.738Z,34.09
2022-08-10T10:16:24.148Z,35.82
2022-08-10T10:19:27.692Z,35.31
2022-08-10T10:22:17.707Z,36.51
2022-08-10T10:25:19.845Z,35.88
2022-08-10T10:28:05.734Z,35.87
2022-08-10T10:30:39.447Z,35.91
2022-08-10T10:33:14.902Z,35.08
2022-08-10T10:35:52.347Z,34.06
2022-08-10T10:38:23.262Z,35.15
2022-08-10T10:40:54.715Z,35.31
2022-08-10T10:43:39.864Z,34.90
2022-08-10T10:46:12.147Z,35.20
2022-08-10T10:49:01.974Z,34.90
2022-08-10T10:51:34.955Z,34.20
2022-08-10T10:54:10.649Z,34.48
2022-08-10T10:56:56.994Z,33.57
2022-08-10T10:59:55.181Z,33.02
2022-08-10T11:02:51.650Z,33.50
2022-08-10T11:05:26.911Z,33.74
2022-08-10T11:08:01.068Z,33.89
2022-08-10T11:10:35.227Z,32.55
2022-08-10T11:14:27.498Z,33.55
2022-08-10T11:16:24.576Z,33.34
2022-08-10T11:19:13.839Z,33.51
2022-08-10T11:22:11.340Z,33.15
2022-08-10T11:25:01.732Z,32.89
2022-08-10T11:27:48.716Z,32.37
2022-08-10T11:30:20.266Z,31.58
2022-08-10T11:33:32.457Z,31.91
2022-08-10T11:36:08.708Z,31.20
2022-08-10T11:39:14.109Z,30.51
2022-08-10T11:42:07.983Z,31.07
2022-08-10T11:44:43.575Z,31.78
2022-08-10T11:47:23.175Z,32.15
2022-08-10T11:49:58.478Z,32.06
2022-08-10T11:52:24.912Z,32.66
2022-08-10T11:54:55.121Z,32.40
2022-08-10T11:57:53.185Z,32.24
2022-08-10T12:00:16.049Z,31.62
2022-08-10T12:02:49.272Z,31.40
2022-08-10T12:05:21.350Z,31.53
2022-08-10T12:08:54.850Z,31.25
2022-08-10T12:10:41.027Z,30.34
2022-08-10T12:13:26.167Z,31.03
2022-08-10T12:16:08.903Z,29.79
2022-08-10T12:18:46.974Z,28.81
2022-08-10T12:21:22.438Z,29.95
2022-08-10T12:24:08.505Z,29.82
2022-08-10T12:26:49.784Z,30.22
2022-08-10T12:29:57.972Z,30.21
2022-08-10T12:32:50.343Z,30.23
2022-08-10T12:35:22.838Z,30.48
2022-08-10T12:38:14.141Z,29.81
2022-08-10T12:40:48.452Z,30.34
2022-08-10T12:44:04.524Z,30.09
2022-08-10T12:46:26.118Z,30.20
2022-08-10T12:49:19.813Z,29.62
2022-08-10T12:52:00.098Z,29.34
2022-08-10T12:54:33.870Z,29.82
2022-08-10T12:57:05.472Z,30.11
2022-08-10T12:59:33.551Z,29.41
2022-08-10T13:02:14.702Z,29.24
2022-08-10T13:04:43.040Z,29.11
2022-08-10T13:07:10.438Z,28.73
2022-08-10T13:10:26.036Z,27.28
2022-08-10T13:12:57.516Z,28.92
2022-08-10T13:15:48.798Z,27.80
2022-08-10T13:18:18.278Z,27.71
2022-08-10T13:20:50.576Z,27.38
2022-08-10T13:23:24.857Z,27.57
2022-08-10T13:25:54.003Z,28.00
2022-08-10T13:28:37.800Z,28.13
2022-08-10T13:31:11.441Z,28.39
2022-08-10T13:34:36.604Z,28.96
2022-08-10T13:36:40.111Z,28.60
2022-08-10T13:39:08.184Z,28.09
2022-08-10T13:41:40.432Z,28.08
2022-08-10T13:44:09.574Z,27.54
2022-08-10T13:46:40.402Z,27.76
2022-08-10T13:49:08.414Z,27.47
2022-08-10T13:51:57.012Z,27.09
2022-08-10T13:54:26.680Z,27.19
2022-08-10T13:56:55.677Z,27.56
2022-08-10T13:59:26.624Z,27.46
2022-08-10T14:02:17.418Z,27.90
2022-08-10T14:04:46.200Z,27.96
2022-08-10T14:07:14.533Z,27.49
2022-08-10T14:09:41.700Z,27.13
2022-08-10T14:12:10.372Z,26.59
2022-08-10T14:14:38.826Z,26.41
2022-08-10T14:17:07.249Z,25.96
2022-08-10T14:19:43.228Z,26.08
2022-08-10T14:22:16.990Z,25.88
2022-08-10T14:24:46.702Z,25.95
2022-08-10T14:27:16.560Z,25.87
2022-08-10T14:29:49.661Z,26.05
2022-08-10T14:32:21.472Z,25.88
2022-08-10T14:36:16.375Z,26.03
2022-08-10T14:37:40.006Z,26.21
2022-08-10T14:40:11.685Z,26.42
2022-08-10T14:42:47.055Z,25.62
2022-08-10T14:45:21.230Z,25.74
2022-08-10T14:47:53.906Z,26.04
2022-08-10T14:50:31.774Z,26.37
2022-08-10T14:53:09.256Z,25.62
2022-08-10T14:55:58.646Z,26.72
2022-08-10T14:58:31.163Z,26.10
2022-08-10T15:00:58.551Z,25.90
2022-08-10T15:04:01.734Z,25.74
2022-08-10T15:06:20.514Z,25.76
2022-08-10T15:09:12.661Z,25.66
2022-08-10T15:12:13.858Z,25.43
2022-08-10T15:14:43.118Z,26.02
2022-08-10T15:17:13.592Z,26.00
2022-08-10T15:20:02.231Z,26.83
2022-08-10T15:22:39.199Z,26.99
2022-08-10T15:25:19.315Z,27.05
2022-08-10T15:28:13.155Z,26.85
2022-08-10T15:30:45.907Z,27.20
2022-08-10T15:34:01.970Z,27.60
2022-08-10T15:36:44.953Z,27.36
2022-08-10T15:40:25.915Z,27.12
2022-08-10T15:42:26.231Z,26.64
2022-08-10T15:44:54.930Z,27.73
2022-08-10T15:47:26.644Z,27.64
2022-08-10T15:50:06.820Z,27.61
2022-08-10T15:53:00.879Z,27.58
2022-08-10T15:55:47.693Z,27.23
2022-08-10T15:58:55.789Z,26.74
2022-08-10T16:02:14.678Z,26.72
2022-08-10T16:04:47.499Z,26.94
2022-08-10T16:07:19.432Z,27.01
2022-08-10T16:10:26.831Z,26.73
2022-08-10T16:13:00.160Z,27.47
2022-08-10T16:15:29.081Z,28.35
2022-08-10T16:18:16.539Z,27.49
2022-08-10T16:20:55.210Z,27.69
2022-08-10T16:23:29.871Z,27.71
2022-08-10T16:26:01.828Z,27.51
2022-08-10T16:28:36.870Z,27.75
2022-08-10T16:31:12.561Z,27.70
2022-08-10T16:33:53.657Z,27.45
2022-08-10T16:36:21.943Z,27.62
2022-08-10T16:38:50.186Z,27.78
2022-08-10T16:41:52.097Z,27.86
2022-08-10T16:44:10.168Z,28.38
2022-08-10T16:46:42.361Z,28.33
2022-08-10T16:49:09.963Z,28.16
2022-08-10T16:51:37.940Z,28.56
2022-08-10T16:54:06.912Z,28.34
2022-08-10T16:56:49.328Z,28.37
2022-08-10T16:59:20.664Z,28.39
2022-08-10T17:01:51.645Z,28.62
2022-08-10T17:04:23.453Z,28.64
2022-08-10T17:07:03.792Z,28.55
2022-08-10T17:09:33.076Z,28.69
2022-08-10T17:12:05.638Z,29.26
2022-08-10T17:14:32.159Z,29.10
2022-08-10T17:17:04.368Z,29.21
2022-08-10T17:19:39.375Z,29.50
2022-08-10T17:22:12.819Z,29.41
2022-08-10T17:24:45.367Z,29.48
2022-08-10T17:28:05.447Z,30.03
2022-08-10T17:30:04.805Z,30.05
2022-08-10T17:32:49.686Z,29.69
2022-08-10T17:35:23.461Z,29.83
2022-08-10T17:38:00.474Z,30.15
2022-08-10T17:40:28.535Z,30.16
2022-08-10T17:42:55.911Z,31.02
2022-08-10T17:45:47.028Z,32.60
2022-08-10T17:48:12.693Z,34.23
2022-08-10T17:50:42.746Z,33.97
2022-08-10T17:53:20.247Z,34.82
2022-08-10T17:55:49.248Z,35.27
2022-08-10T17:58:18.165Z,35.51
2022-08-10T18:00:51.044Z,36.17
2022-08-10T18:03:25.196Z,36.61
2022-08-10T18:05:59.756Z,36.55
2022-08-10T18:08:29.370Z,36.89
2022-08-10T18:10:57.953Z,36.83
2022-08-10T18:13:27.512Z,37.20
2022-08-10T18:16:15.529Z,37.68
2022-08-10T18:18:41.968Z,38.98
2022-08-10T18:21:15.781Z,39.73
2022-08-10T18:23:44.409Z,39.30
2022-08-10T18:26:22.896Z,38.51
2022-08-10T18:28:55.566Z,39.12
2022-08-10T18:31:25.312Z,39.35
2022-08-10T18:33:55.580Z,40.00
2022-08-10T18:36:23.856Z,40.40
2022-08-10T18:38:53.412Z,40.78
2022-08-10T18:41:26.599Z,41.27
2022-08-10T18:44:10.287Z,43.85
2022-08-10T18:46:46.021Z,45.14
2022-08-10T18:49:30.045Z,48.18
2022-08-10T18:52:00.502Z,48.12
2022-08-10T18:54:43.803Z,47.87
2022-08-10T18:57:36.098Z,48.96
2022-08-10T19:00:13.182Z,52.50
2022-08-10T19:03:10.081Z,51.63
2022-08-10T19:05:58.132Z,48.07
2022-08-10T19:08:49.199Z,47.21
2022-08-10T19:12:04.970Z,49.59
2022-08-10T19:15:06.924Z,50.71
2022-08-10T19:18:05.970Z,49.73
2022-08-10T19:21:08.906Z,49.52
2022-08-10T19:23:54.245Z,50.82
2022-08-10T19:26:44.536Z,50.47
2022-08-10T19:30:01.033Z,52.17
2022-08-10T19:32:27.357Z,53.83
2022-08-10T19:35:31.520Z,53.21
2022-08-10T19:38:16.764Z,52.69
2022-08-10T19:41:09.339Z,53.28
2022-08-10T19:44:00.047Z,52.34
2022-08-10T19:46:37.607Z,54.20
2022-08-10T19:49:17.428Z,51.53
2022-08-10T19:52:19.599Z,50.67
2022-08-10T19:55:04.436Z,50.73
2022-08-10T19:57:37.610Z,50.91
2022-08-10T20:00:19.430Z,52.70
2022-08-10T20:03:13.128Z,51.51
2022-08-10T20:06:18.181Z,51.28
2022-08-10T20:08:46.128Z,51.58
2022-08-10T20:11:44.766Z,52.68
2022-08-10T20:14:22.974Z,51.05
2022-08-10T20:16:56.283Z,51.35
2022-08-10T20:19:22.744Z,51.12
2022-08-10T20:22:04.624Z,51.43
2022-08-10T20:24:38.846Z,51.11
2022-08-10T20:27:57.651Z,51.38
2022-08-10T20:30:04.879Z,51.63
2022-08-10T20:33:02.915Z,53.65
2022-08-10T20:36:00.093Z,53.92
2022-08-10T20:38:34.180Z,55.21
2022-08-10T20:41:03.392Z,56.36
2022-08-10T20:43:41.610Z,56.39
2022-08-10T20:46:17.199Z,55.98
2022-08-10T20:48:56.363Z,56.77
2022-08-10T20:51:58.990Z,57.49
2022-08-10T20:54:17.590Z,56.91
2022-08-10T20:57:54.526Z,56.85
2022-08-10T21:00:09.913Z,56.63
2022-08-10T21:03:21.306Z,57.58
2022-08-10T21:06:08.986Z,57.61
2022-08-10T21:08:50.801Z,57.43
2022-08-10T21:11:55.022Z,57.49
2022-08-10T21:14:50.941Z,57.80
2022-08-10T21:17:53.518Z,57.60
2022-08-10T21:20:47.213Z,57.98
2022-08-10T21:23:16.724Z,58.00
2022-08-10T21:26:07.452Z,58.28
2022-08-10T21:28:49.996Z,58.31
2022-08-10T21:31:48.142Z,58.35
2022-08-10T21:34:35.179Z,58.46
2022-08-10T21:37:39.821Z,58.74
2022-08-10T21:40:34.494Z,58.60
2022-08-10T21:43:44.389Z,58.83
2022-08-10T21:46:55.251Z,58.74
2022-08-10T21:50:18.123Z,59.11
2022-08-10T21:53:45.025Z,59.03
2022-08-10T21:56:47.762Z,59.10
2022-08-10T21:59:56.638Z,59.11
2022-08-10T22:02:52.565Z,59.17
2022-08-10T22:05:47.907Z,59.39
2022-08-10T22:08:37.476Z,59.04
2022-08-10T22:11:26.716Z,59.17
2022-08-10T22:14:12.859Z,59.26
2022-08-10T22:18:00.266Z,59.79
2022-08-10T22:20:27.158Z,60.10
2022-08-10T22:23:34.633Z,60.14
2022-08-10T22:26:40.190Z,60.01
2022-08-10T22:29:42.348Z,59.50
2022-08-10T22:32:41.965Z,59.00
2022-08-10T22:36:04.900Z,58.90
2022-08-10T22:40:10.995Z,59.11
2022-08-10T22:42:59.299Z,59.71
2022-08-10T22:45:40.656Z,59.71
2022-08-10T22:48:26.003Z,60.06
2022-08-10T22:50:56.793Z,59.96
2022-08-10T22:54:08.335Z,60.99
2022-08-10T22:56:58.100Z,61.40
2022-08-10T22:59:32.387Z,61.14
2022-08-10T23:02:18.774Z,60.27
2022-08-10T23:04:51.387Z,60.36
2022-08-10T23:07:17.747Z,59.44
2022-08-10T23:09:49.465Z,59.86
2022-08-10T23:12:20.977Z,59.48
2022-08-10T23:15:00.066Z,59.49
2022-08-10T23:18:01.891Z,59.53
2022-08-10T23:20:30.301Z,59.83
2022-08-10T23:23:04.744Z,60.00
2022-08-10T23:25:56.793Z,60.52
2022-08-10T23:28:38.938Z,60.76
2022-08-10T23:31:14.458Z,61.51
2022-08-10T23:33:42.618Z,61.27
2022-08-10T23:36:34.577Z,62.37
2022-08-10T23:39:25.796Z,63.80
2022-08-10T23:41:56.190Z,63.67
2022-08-10T23:44:24.703Z,63.49
2022-08-10T23:46:51.663Z,64.11
2022-08-10T23:49:19.911Z,63.82
2022-08-10T23:51:55.396Z,64.18
2022-08-10T23:54:24.769Z,64.19
2022-08-10T23:56:54.288Z,65.53
2022-08-10T23:59:23.569Z,65.68
